x

Edisto - 41 Nm Southeast Of Charleston, Sc (41004) Wave Buoy

8:50pm - Mon 27th Apr 2015 All times are EDT. -4 hours from GMT.

  • Sig Wave height 2.6ft
  • Swell Direction
  • Peak Period 5s
  • Average Period 5s
  • Wind
    4mph, 7mph gusts
  • Sea Temp 71°f
  • Air Temp 66°f
  • Sea Pressure 1011.1mb
  • Edisto - 41 Nm Southeast Of Charleston, Sc
  • Edisto - 41 Nm Southeast Of Charleston, Sc

More Historic Weather Station data

Upgrade to MSW Pro to gain access to the past 30 days of data for over 8000 Wavebouys and Weather Stations around the globe.

Join Pro

Comparision Forecast

View Surf forecast
   
Mon 04/27 8:50pm 2.5ft 5s 5s 4 7 mph 1011.1mb 71f 66f
7:50pm 2.5ft 5s 5s 2 4 mph 1010.2mb 71f 65f
6:50pm 2.5ft 5s 5s 2 4 mph 1009.9mb 71f 65f
5:50pm 2.5ft 6s 5s 7 9 mph 1009.6mb 71f 65f
4:50pm 2.5ft 6s 5s 9 11 mph 1009.2mb 71f 64f
3:50pm 3ft 6s 5s 11 13 mph 1009.2mb 71f 63f
2:50pm 3.5ft 6s 4s 13 16 mph 1009.3mb 71f 62f
1:50pm 3.5ft 5s 5s 13 18 mph 1009.2mb 71f 61f
12:50pm 3.5ft 6s 4s 16 20 mph 1010mb 71f 60f
11:50am 3.5ft 6s 5s 13 18 mph 1010.2mb 71f 61f
10:50am 3.5ft 6s 5s 11 16 mph 1009.9mb 71f 61f
9:50am 3.5ft 6s 5s 11 16 mph 1009.2mb 71f 61f
8:50am 4ft 6s 5s 13 16 mph 1008.3mb 71f 61f
7:50am 4ft 6s 5s 13 18 mph 1007.6mb 71f 62f
6:50am 4.5ft 6s 5s 16 18 mph 1006.7mb 71f 62f
5:50am 4.5ft 6s 4s 16 20 mph 1005.6mb 71f 62f
4:50am 5ft 6s 5s 18 20 mph 1004.8mb 71f 63f
3:50am 5ft 5s 5s 18 20 mph 1005mb 71f 64f
2:50am 5.5ft 6s 5s 20 22 mph 1005mb 71f 64f
1:50am 5ft 6s 5s 20 25 mph 1005.1mb 71f 65f
12:50am 5.5ft 6s 5s 22 27 mph 1005.4mb 71f 65f
Sun 04/26 11:50pm 5ft 5s 5s 25 29 mph 1004.5mb 71f 66f
10:50pm 5ft 5s 4s 25 29 mph 1004.2mb 71f 67f
9:50pm 4ft 5s 4s 25 27 mph 1003.8mb 71f 69f
8:50pm 4.5ft 6s 5s 16 22 mph 1002.8mb 72f 74f
7:50pm 4.5ft 6s 5s 20 27 mph 1001.5mb 72f 74f
6:50pm 4.5ft 6s 5s 20 25 mph 1001.2mb 72f 73f
5:50pm 4.5ft 6s 5s 18 20 mph 1001.2mb 72f 74f
4:50pm 4.5ft 7s 5s 18 20 mph 1001.4mb 72f 73f
3:50pm 5ft 5s 5s 20 22 mph 1001.7mb 72f 73f
2:50pm 5ft 6s 5s 18 22 mph 1002.3mb 72f 72f
1:50pm 5ft 5s 5s 20 22 mph 1002.5mb 72f 72f
12:50pm 5.5ft 5s 5s 18 25 mph 1002.8mb 72f 71f
11:50am 5.5ft 5s 5s 20 25 mph 1003mb 72f 71f
10:50am 5ft 5s 5s 22 25 mph 1003mb 71f 70f
9:50am 5ft 5s 5s 22 27 mph 1002.8mb 71f 70f
8:50am 5ft 5s 5s 25 29 mph 1002.5mb 71f 71f
7:50am 5ft 5s 4s 25 29 mph 1002.4mb 71f 71f
6:50am 4.5ft 6s 4s 25 31 mph 1002mb 71f 71f
5:50am 4.5ft 4s 4s 22 29 mph 1001.7mb 71f 71f
4:50am 4.5ft 4s 4s 20 25 mph 1001.6mb 71f 71f
3:50am 4ft 6s 4s 25 31 mph 1001.4mb 71f 72f
2:50am 4ft 6s 4s 22 27 mph 1001.6mb 71f 71f
1:50am 4.5ft 6s 5s 20 22 mph 1002.6mb 71f 71f
12:50am 4.5ft 6s 5s 20 25 mph 1002.8mb 71f 71f
Sat 04/25 11:50pm 5ft 6s 5s 22 29 mph 1004.3mb 71f 71f
10:50pm 4ft 5s 5s 22 29 mph 1004.5mb 71f 72f
9:50pm 4ft 6s 5s 18 20 mph 1004.3mb 71f 72f
8:50pm 4.5ft 5s 5s 18 20 mph 1004mb 71f 72f
7:50pm 4.5ft 6s 5s 22 25 mph 1004.6mb 71f 72f
6:50pm 5ft 5s 5s 22 25 mph 1004.6mb 71f 73f
5:50pm 5ft 6s 5s 20 25 mph 1005.4mb 72f 74f
4:50pm 5.5ft 5s 5s 22 27 mph 1006mb 72f 73f
3:50pm 5ft 6s 5s 29 36 mph 1006.1mb 72f 71f
2:50pm 5ft 5s 4s 27 34 mph 1006.4mb 72f 71f
1:50pm 3ft 4s 4s 36 45 mph 1006.5mb 72f 69f
12:50pm 2.5ft 9s 4s 16 18 mph 1012.9mb 72f 71f
11:50am 2.5ft 7s 4s 13 16 mph 1013.2mb 72f 72f
10:50am 2.5ft 8s 5s 13 16 mph 1013.6mb 71f 72f
9:50am 2.5ft 8s 5s 13 18 mph 1013.7mb 71f 71f
8:50am 2.5ft 8s 5s 11 13 mph 1013.8mb 71f 71f
7:50am 2.5ft 8s 5s 11 13 mph 1013.9mb 71f 71f
6:50am 2.5ft 9s 6s 11 13 mph 1014.1mb 71f 71f
5:50am 2.5ft 9s 6s 11 16 mph 1013.8mb 71f 70f
4:50am 2.5ft 8s 6s 11 13 mph 1013mb 72f 70f
3:50am 3ft 10s 7s 9 11 mph 1014.3mb 72f 69f
2:50am 3ft 9s 7s 11 13 mph 1014.4mb 72f 69f
1:50am 3.5ft 9s 7s 9 11 mph 1015.2mb 72f 68f
12:50am 3ft 10s 7s 7 9 mph 1016mb 72f 68f
Fri 04/24 11:50pm 3.5ft 8s 7s 7 11 mph 1016mb 72f 67f
10:50pm 3.5ft 9s 6s 7 9 mph 1016.5mb 71f 67f
9:50pm 3.5ft 8s 6s 9 11 mph 1017mb 71f 66f
8:50pm 3.5ft 8s 6s 7 11 mph 1016.8mb 71f 65f
7:50pm 4ft 8s 6s 7 9 mph 1016.8mb 71f 65f
6:50pm 4.5ft 7s 5s 7 9 mph 1016.4mb 71f 64f
5:50pm 4.5ft 8s 5s 7 9 mph 1016.3mb 71f 64f
4:50pm 5ft 7s 6s 9 13 mph 1016.3mb 71f 63f
3:50pm 5ft 7s 5s 11 13 mph 1016.7mb 71f 63f
2:50pm 6ft 7s 5s 13 18 mph 1017.3mb 72f 62f
1:50pm 7ft 7s 6s 16 22 mph 1017.5mb 72f 62f
12:50pm 7ft 7s 6s 18 22 mph 1017.3mb 72f 62f
11:50am 7ft 8s 6s 22 27 mph 1017.6mb 71f 62f
10:50am 8ft 7s 5s 22 29 mph 1017.6mb 71f 62f
9:50am 8ft 7s 6s 25 31 mph 1016.8mb 71f 62f
8:50am 7ft 6s 5s 27 34 mph 1015.7mb 71f 63f
7:50am 6.5ft 6s 5s 27 31 mph 1015.2mb 71f 64f
6:50am 5.5ft 5s 4s 29 34 mph 1014.4mb 71f 65f
5:50am 3.5ft 4s 4s 29 34 mph 1013.2mb 72f 66f
4:50am 3.5ft 4s 4s 27 31 mph 1012.5mb 72f 67f
3:50am 3ft 4s 4s 25 29 mph 1012.1mb 72f 69f
2:50am 2.5ft 4s 4s 22 25 mph 1011.8mb 72f 72f